Terminal Aerodrome Forecast
Issued by NWS Upton, NY

Home | Current Version | Previous Version | Text Only | Print | Product List | Glossary On
Versions: 1 2 3 4 5 6 7 8 9 10 11 12 13 14 15 16 17 18 19 20 21 22 23 24 25 26 27 28 29 30 31 32 33 34 35 36 37 38
382
FTUS41 KOKX 202340
TAFEWR
TAF
KEWR 202340Z 2100/2206 14006KT 6SM -RA BR BKN010 OVC020
     FM210300 19003KT 2SM -DZ BR OVC008
     FM210500 VRB03KT 2SM -DZ BR OVC006
      TEMPO 2109/2112 OVC004
     FM211400 25006KT 5SM BR SCT006 BKN012
     FM211800 25008KT P6SM BKN040
     FM220100 24004KT 4SM BR BKN015
      TEMPO 2203/2206 23003KT 3/4SM BR OVC006=

USA.gov is the U.S. government's official web portal to all federal, state and local government web resources and services.